Time;durP1;ratioP1;P1;durP2;ratioP2;P2;SDS_P1;SDS_P2;PMS_P1;PMS_P2;Temp;Humidity;BMP_temperature;BMP_pressure;BME280_temperature;BME280_humidity;BME280_pressure;Samples;Min_cycle;Max_cycle;Signal;HPM_P1;HPM_P2
2024/01/11 00:01:02;;;;;;;28.53;18.13;;;-1.00;84.90;;;0.49;58.57;103352.72;3082298;46;20438;-65
2024/01/11 00:03:31;;;;;;;32.93;18.37;;;-1.00;85.70;;;0.52;58.60;103347.47;3082173;46;20458;-65
2024/01/11 00:06:01;;;;;;;30.93;19.23;;;-1.00;85.90;;;0.55;58.62;103339.56;3082463;46;20541;-64
2024/01/11 00:08:30;;;;;;;30.87;17.83;;;-1.00;85.80;;;0.57;58.22;103335.22;3081806;46;20583;-66
2024/01/11 00:10:58;;;;;;;29.73;18.50;;;-1.00;85.60;;;0.59;58.48;103349.78;3082388;46;20442;-65
2024/01/11 00:13:27;;;;;;;34.30;18.87;;;-1.00;85.50;;;0.62;58.61;103356.63;3081875;46;21121;-66
2024/01/11 00:15:55;;;;;;;30.40;18.80;;;-0.90;85.70;;;0.64;58.23;103357.47;3082289;46;20458;-62
2024/01/11 00:18:23;;;;;;;39.03;21.10;;;-0.90;85.10;;;0.66;58.19;103356.53;3081871;46;21136;-66
2024/01/11 00:20:52;;;;;;;40.03;19.87;;;-1.00;85.20;;;0.71;58.15;103353.78;3081585;46;20525;-62
2024/01/11 00:23:21;;;;;;;37.43;19.90;;;-0.90;85.40;;;0.73;58.14;103359.75;3082449;46;20995;-65
2024/01/11 00:25:50;;;;;;;35.87;20.87;;;-0.90;85.70;;;0.76;57.96;103351.91;3082134;46;20516;-64
2024/01/11 00:28:18;;;;;;;36.00;20.00;;;-0.90;85.80;;;0.79;58.00;103338.84;3081647;46;20457;-64
2024/01/11 00:30:46;;;;;;;36.67;20.73;;;-0.90;85.70;;;0.80;57.83;103340.53;3081879;46;20496;-65
2024/01/11 00:33:15;;;;;;;40.63;21.37;;;-0.90;85.30;;;0.80;57.93;103344.88;3082297;46;21052;-66
2024/01/11 00:35:43;;;;;;;38.37;21.20;;;-0.90;85.30;;;0.72;57.70;103337.31;3081798;46;20974;-64
2024/01/11 00:38:12;;;;;;;34.87;20.17;;;-1.00;85.00;;;0.69;57.93;103335.69;3081674;46;20474;-66
2024/01/11 00:40:40;;;;;;;34.13;20.47;;;-1.00;85.70;;;0.67;57.87;103326.25;3081702;46;20455;-64
2024/01/11 00:43:09;;;;;;;38.83;21.83;;;-1.00;85.30;;;0.61;57.94;103322.13;3081983;46;20554;-65
2024/01/11 00:45:38;;;;;;;37.90;19.90;;;-1.00;85.50;;;0.60;57.90;103324.75;3081976;46;21110;-65
2024/01/11 00:48:06;;;;;;;33.63;20.20;;;-1.10;85.70;;;0.59;58.29;103328.25;3081492;46;20446;-64
2024/01/11 00:50:34;;;;;;;41.33;21.47;;;-1.10;86.30;;;0.60;58.38;103330.78;3081322;46;20932;-65
2024/01/11 00:53:03;;;;;;;42.23;23.33;;;-1.10;86.00;;;0.59;58.24;103317.88;3081323;46;21010;-66
2024/01/11 00:55:32;;;;;;;42.30;22.07;;;-1.10;86.40;;;0.58;57.69;103301.50;3081263;46;20482;-64
2024/01/11 00:58:01;;;;;;;39.10;22.53;;;-1.10;85.80;;;0.54;58.42;103309.41;3081421;46;21031;-64
2024/01/11 01:00:29;;;;;;;40.90;23.03;;;-1.20;86.50;;;0.57;58.62;103319.69;3081804;46;20598;-65
2024/01/11 01:02:57;;;;;;;40.67;21.83;;;-1.20;86.60;;;0.59;58.55;103320.47;3081742;46;20485;-66
2024/01/11 01:05:26;;;;;;;38.10;22.17;;;-1.10;86.70;;;0.60;58.52;103315.22;3081481;46;21091;-65
2024/01/11 01:07:54;;;;;;;38.93;21.63;;;-1.20;86.90;;;0.63;58.34;103311.69;3081062;46;20476;-65
2024/01/11 01:10:23;;;;;;;40.57;20.77;;;-1.10;87.40;;;0.65;58.38;103302.13;3081169;46;21076;-65
2024/01/11 01:12:52;;;;;;;44.57;22.77;;;-1.10;87.10;;;0.66;58.45;103309.03;3081659;46;20463;-66
2024/01/11 01:15:20;;;;;;;41.63;23.20;;;-1.10;87.10;;;0.67;58.53;103311.56;3081651;46;20438;-65
2024/01/11 01:17:48;;;;;;;43.60;23.50;;;-1.10;87.00;;;0.63;58.14;103303.94;3081066;46;20446;-64
2024/01/11 01:20:17;;;;;;;42.33;22.97;;;-1.10;86.20;;;0.60;58.42;103304.03;3081377;46;20456;-64
2024/01/11 01:22:45;;;;;;;41.57;23.17;;;-1.10;86.80;;;0.61;58.90;103297.97;3081771;46;20458;-65
2024/01/11 01:25:14;;;;;;;43.80;22.40;;;-1.10;86.90;;;0.62;58.50;103302.22;3081161;46;20466;-65
2024/01/11 01:27:42;;;;;;;44.40;23.93;;;-1.10;86.50;;;0.61;58.39;103295.38;3081020;46;21044;-65
2024/01/11 01:30:11;;;;;;;43.03;22.23;;;-1.10;86.40;;;0.57;58.29;103293.78;3081631;46;20611;-66
2024/01/11 01:32:39;;;;;;;40.90;22.27;;;-1.10;86.00;;;0.56;58.42;103302.44;3081291;46;20450;-65
2024/01/11 01:35:08;;;;;;;46.90;23.57;;;-1.10;86.60;;;0.58;58.74;103295.44;3081347;46;20438;-63
2024/01/11 01:37:36;;;;;;;42.00;22.80;;;-1.10;86.90;;;0.61;58.47;103297.97;3081143;46;20443;-66
2024/01/11 01:40:07;;;;;;;46.07;23.23;;;-1.20;86.70;;;0.58;58.30;103303.22;3081086;46;20465;-65
2024/01/11 01:42:35;;;;;;;45.40;23.97;;;-1.20;86.40;;;0.59;58.56;103291.97;3080918;46;21090;-66
2024/01/11 01:45:05;;;;;;;47.57;26.13;;;-1.10;87.10;;;0.61;59.05;103290.19;3081444;46;20434;-65
2024/01/11 01:47:33;;;;;;;46.07;25.57;;;-1.10;87.40;;;0.65;58.58;103273.63;3080875;46;20450;-61
2024/01/11 01:50:04;;;;;;;48.43;24.40;;;-1.10;87.30;;;0.67;58.80;103279.63;3081300;46;20438;-65
2024/01/11 01:52:34;;;;;;;47.80;24.70;;;-1.10;87.20;;;0.70;59.00;103263.97;3081546;46;20431;-65
2024/01/11 01:55:06;;;;;;;50.30;25.57;;;-1.10;87.50;;;0.72;58.61;103262.19;3080065;46;20439;-65
2024/01/11 01:57:36;;;;;;;47.50;25.27;;;-1.00;87.10;;;0.75;58.95;103266.41;3079645;46;20583;-65
2024/01/11 02:00:06;;;;;;;49.23;25.23;;;-1.00;87.50;;;0.79;58.76;103279.22;3080244;46;21094;-65
2024/01/11 02:02:35;;;;;;;51.07;25.97;;;-1.00;87.00;;;0.82;58.46;103278.28;3080557;46;21011;-69
2024/01/11 02:05:05;;;;;;;43.67;24.20;;;-0.90;86.70;;;0.84;58.75;103277.34;3081564;46;20434;-62
2024/01/11 02:07:35;;;;;;;48.80;25.50;;;-0.90;86.90;;;0.88;58.62;103284.13;3083309;46;20446;-66
2024/01/11 02:10:03;;;;;;;49.27;25.17;;;-0.90;86.90;;;0.92;58.52;103274.50;3083425;46;20460;-65
2024/01/11 02:12:37;;;;;;;48.20;26.57;;;-0.80;86.90;;;0.99;58.67;103282.03;3082481;46;21095;-66
2024/01/11 02:15:06;;;;;;;49.83;26.40;;;-0.80;86.80;;;1.04;58.25;103285.34;3083580;46;20435;-66
2024/01/11 02:17:34;;;;;;;47.33;24.43;;;-0.70;86.20;;;1.06;57.89;103272.31;3082882;46;20471;-64
2024/01/11 02:20:04;;;;;;;47.67;24.90;;;-0.70;85.90;;;1.07;57.83;103269.66;3083494;46;20423;-66
2024/01/11 02:22:38;;;;;;;45.67;25.17;;;-0.70;86.20;;;1.09;58.06;103277.41;3082613;46;21019;-66
2024/01/11 02:25:07;;;;;;;46.57;26.10;;;-0.70;86.10;;;1.10;57.89;103285.13;3083716;46;20462;-65
2024/01/11 02:27:49;;;;;;;44.53;23.97;;;-0.60;85.90;;;1.05;57.72;103281.81;3082082;46;20474;-65
2024/01/11 02:30:18;;;;;;;46.63;24.60;;;-0.70;85.40;;;1.04;57.66;103280.16;3083259;46;20434;-65
2024/01/11 02:32:50;;;;;;;46.00;25.57;;;-0.70;85.80;;;1.02;57.52;103281.09;3083071;46;20480;-65
2024/01/11 02:35:19;;;;;;;52.10;27.83;;;-0.70;85.90;;;0.98;57.72;103295.88;3082328;46;20451;-66
2024/01/11 02:37:48;;;;;;;48.23;26.50;;;-0.70;85.70;;;0.93;57.69;103300.38;3082056;46;20450;-65
2024/01/11 02:40:19;;;;;;;47.37;25.70;;;-0.80;85.50;;;0.85;57.69;103292.00;3083175;46;20529;-66
2024/01/11 02:42:47;;;;;;;48.87;25.80;;;-0.90;85.60;;;0.78;57.87;103300.03;3082164;46;20466;-66
2024/01/11 02:45:16;;;;;;;50.37;26.00;;;-0.90;86.00;;;0.71;57.97;103283.81;3083357;46;21013;-64
2024/01/11 02:47:44;;;;;;;47.77;26.13;;;-1.00;85.90;;;0.63;57.65;103296.16;3082258;46;20563;-63
2024/01/11 02:50:13;;;;;;;44.90;26.03;;;-1.00;85.90;;;0.52;57.47;103291.28;3082804;46;20466;-64
2024/01/11 02:52:41;;;;;;;47.07;24.37;;;-1.10;85.70;;;0.48;58.23;103294.03;3083216;46;20545;-66
2024/01/11 02:55:10;;;;;;;43.37;25.07;;;-1.20;86.80;;;0.46;58.43;103290.66;3082828;46;20433;-66
2024/01/11 02:57:38;;;;;;;48.27;25.67;;;-1.20;87.10;;;0.46;58.92;103286.31;3082717;46;20505;-65
2024/01/11 03:00:07;;;;;;;47.67;25.40;;;-1.30;87.90;;;0.52;59.22;103280.94;3082955;46;20458;-64
2024/01/11 03:02:38;;;;;;;46.00;23.57;;;-1.30;88.00;;;0.53;58.99;103281.78;3082595;46;20454;-66
2024/01/11 03:05:06;;;;;;;41.83;24.23;;;-1.20;88.10;;;0.52;59.20;103286.13;3082340;46;20469;-64
2024/01/11 03:07:35;;;;;;;46.73;24.67;;;-1.20;87.90;;;0.50;59.00;103284.50;3082737;46;21460;-65
2024/01/11 03:10:04;;;;;;;47.30;23.93;;;-1.20;87.60;;;0.46;58.84;103295.81;3082901;46;20483;-65
2024/01/11 03:12:32;;;;;;;44.17;24.30;;;-1.30;87.30;;;0.40;58.82;103286.53;3082619;46;21014;-65
2024/01/11 03:15:00;;;;;;;47.17;23.83;;;-1.30;87.30;;;0.35;58.53;103303.06;3082872;46;20498;-66
2024/01/11 03:17:29;;;;;;;38.93;21.30;;;-1.40;87.00;;;0.28;58.67;103312.78;3081702;46;21022;-66
2024/01/11 03:19:59;;;;;;;37.53;19.63;;;-1.40;87.10;;;0.19;58.38;103310.44;3082900;46;20438;-66
2024/01/11 03:22:28;;;;;;;41.57;21.57;;;-1.50;86.90;;;0.13;58.52;103292.50;3082912;46;20915;-65
2024/01/11 03:24:56;;;;;;;48.13;23.50;;;-1.60;87.00;;;0.09;58.60;103290.03;3082675;46;20552;-66
2024/01/11 03:27:25;;;;;;;43.83;23.57;;;-1.60;87.50;;;0.08;58.87;103289.19;3082252;46;20476;-66
2024/01/11 03:29:53;;;;;;;49.20;25.43;;;-1.70;88.40;;;0.12;59.58;103295.97;3082955;46;20458;-65
2024/01/11 03:32:21;;;;;;;51.93;25.60;;;-1.70;89.40;;;0.22;59.85;103294.81;3082534;46;20460;-66
2024/01/11 03:34:50;;;;;;;44.40;22.57;;;-1.60;89.90;;;0.28;59.65;103296.38;3082802;46;20434;-63
2024/01/11 03:37:18;;;;;;;46.27;23.03;;;-1.60;89.20;;;0.28;59.11;103297.25;3082157;46;20453;-66
2024/01/11 03:39:47;;;;;;;45.17;24.53;;;-1.50;88.60;;;0.29;59.41;103288.56;3082678;46;20512;-64
2024/01/11 03:42:15;;;;;;;48.17;24.33;;;-1.50;88.60;;;0.26;58.97;103277.47;3082660;46;21201;-64
2024/01/11 03:44:43;;;;;;;46.90;25.57;;;-1.50;88.30;;;0.23;58.99;103281.00;3082801;46;20484;-62
2024/01/11 03:47:12;;;;;;;47.33;24.77;;;-1.60;88.30;;;0.23;59.64;103277.53;3081943;46;20947;-66
2024/01/11 03:49:40;;;;;;;51.47;26.17;;;-1.60;88.90;;;0.26;59.65;103282.63;3082399;46;21117;-65
2024/01/11 03:52:09;;;;;;;47.30;24.70;;;-1.50;88.90;;;0.24;59.27;103272.31;3082391;46;20437;-66
2024/01/11 03:54:37;;;;;;;48.70;25.57;;;-1.60;88.40;;;0.21;59.31;103281.94;3082302;46;21025;-65
2024/01/11 03:57:06;;;;;;;48.90;25.10;;;-1.60;88.40;;;0.15;59.01;103287.25;3082278;46;20483;-60
2024/01/11 03:59:35;;;;;;;50.63;25.47;;;-1.60;88.20;;;0.08;59.15;103277.97;3082087;46;20505;-65
2024/01/11 04:02:03;;;;;;;43.57;23.40;;;-1.70;88.00;;;0.01;59.21;103264.38;3082539;46;20459;-65
2024/01/11 04:04:32;;;;;;;49.97;27.00;;;-1.70;87.80;;;-0.07;58.92;103277.53;3081941;46;20477;-63
2024/01/11 04:07:00;;;;;;;54.83;25.83;;;-1.80;87.80;;;-0.13;59.09;103280.31;3081329;46;21101;-65
2024/01/11 04:09:29;;;;;;;53.77;27.67;;;-1.80;88.00;;;-0.15;59.44;103286.41;3082063;46;20485;-65
2024/01/11 04:11:57;;;;;;;55.70;27.33;;;-1.90;88.50;;;-0.13;60.20;103311.34;3081968;46;20576;-65
2024/01/11 04:14:25;;;;;;;50.10;27.90;;;-1.90;89.80;;;-0.04;60.38;103315.41;3082122;46;20583;-66
2024/01/11 04:16:54;;;;;;;54.40;25.37;;;-1.80;90.10;;;0.06;60.37;103326.38;3081642;46;20445;-65
2024/01/11 04:19:22;;;;;;;51.47;25.27;;;-1.80;90.20;;;0.17;60.66;103337.28;3081968;46;20518;-65
2024/01/11 04:21:51;;;;;;;56.53;26.13;;;-1.70;90.10;;;0.31;60.49;103348.09;3082206;46;20446;-65
2024/01/11 04:24:20;;;;;;;56.23;26.53;;;-1.60;90.10;;;0.37;59.46;103340.97;3082022;46;20434;-65
2024/01/11 04:26:48;;;;;;;50.27;26.83;;;-1.50;89.20;;;0.37;59.36;103353.06;3081960;46;20446;-65
2024/01/11 04:29:18;;;;;;;53.83;26.10;;;-1.50;88.70;;;0.35;59.13;103350.53;3081913;46;20439;-66
2024/01/11 04:31:46;;;;;;;48.43;25.00;;;-1.50;88.40;;;0.35;58.96;103349.69;3081736;46;20434;-65
2024/01/11 04:34:15;;;;;;;47.03;25.10;;;-1.50;87.90;;;0.30;58.87;103341.19;3082119;46;20442;-65
2024/01/11 04:36:43;;;;;;;45.27;25.27;;;-1.50;87.40;;;0.26;59.15;103337.00;3081613;46;20455;-65
2024/01/11 04:39:11;;;;;;;48.67;24.17;;;-1.50;87.80;;;0.23;59.20;103337.09;3081888;46;20467;-65
2024/01/11 04:41:40;;;;;;;50.67;26.57;;;-1.50;87.50;;;0.24;59.47;103346.56;3082016;46;21132;-64
2024/01/11 04:44:08;;;;;;;45.93;24.43;;;-1.60;87.80;;;0.28;59.47;103349.03;3081871;46;21078;-65
2024/01/11 04:46:37;;;;;;;44.37;24.03;;;-1.50;88.00;;;0.29;59.00;103344.66;3081767;46;20438;-65
2024/01/11 04:49:05;;;;;;;49.23;25.10;;;-1.50;87.50;;;0.29;59.06;103349.84;3081120;46;20446;-61
2024/01/11 04:51:33;;;;;;;50.87;26.17;;;-1.50;87.30;;;0.30;59.55;103338.59;3081642;46;20529;-65
2024/01/11 04:54:02;;;;;;;52.20;26.07;;;-1.50;87.80;;;0.38;59.55;103334.06;3081414;46;21059;-65
2024/01/11 04:56:30;;;;;;;49.37;25.07;;;-1.40;88.20;;;0.47;59.32;103333.78;3081556;46;20434;-65
2024/01/11 04:58:59;;;;;;;50.47;25.40;;;-1.40;87.90;;;0.48;58.85;103320.78;3081229;46;20458;-64
2024/01/11 05:01:27;;;;;;;53.83;26.77;;;-1.40;87.70;;;0.55;59.20;103311.06;3081793;46;20458;-65
2024/01/11 05:03:55;;;;;;;51.77;26.23;;;-1.30;88.20;;;0.62;59.10;103318.63;3081497;46;20470;-66
2024/01/11 05:06:24;;;;;;;48.93;25.07;;;-1.20;87.90;;;0.62;58.63;103312.59;3081411;46;20460;-65
2024/01/11 05:08:53;;;;;;;48.03;24.67;;;-1.20;86.90;;;0.62;58.69;103294.44;3081362;46;20450;-65
2024/01/11 05:11:24;;;;;;;46.47;24.80;;;-1.20;87.50;;;0.64;58.82;103282.31;3081315;46;20495;-66
2024/01/11 05:13:53;;;;;;;46.90;24.03;;;-1.20;88.30;;;0.71;59.17;103286.41;3081046;46;21065;-63
2024/01/11 05:16:26;;;;;;;45.63;23.37;;;-1.10;88.30;;;0.75;58.76;103271.59;3081628;46;20514;-65
2024/01/11 05:18:57;;;;;;;46.77;24.20;;;-1.10;87.50;;;0.76;58.96;103256.03;3080508;46;20538;-64
2024/01/11 05:21:26;;;;;;;47.83;23.63;;;-1.10;87.80;;;0.83;59.02;103249.75;3081447;46;20445;-65
2024/01/11 05:23:54;;;;;;;47.27;25.47;;;-1.00;88.20;;;0.83;58.60;103249.75;3081317;46;21041;-65
2024/01/11 05:26:23;;;;;;;48.47;25.20;;;-1.00;87.70;;;0.76;58.57;103263.81;3081280;46;20486;-65
2024/01/11 05:28:51;;;;;;;46.97;24.40;;;-1.00;87.00;;;0.67;58.55;103269.25;3081174;46;20474;-66
2024/01/11 05:31:19;;;;;;;46.13;23.57;;;-1.00;87.00;;;0.68;59.51;103286.50;3081455;46;20531;-65
2024/01/11 05:33:48;;;;;;;50.07;25.43;;;-1.10;88.10;;;0.73;59.29;103282.03;3081452;46;20556;-66
2024/01/11 05:36:16;;;;;;;45.80;23.50;;;-1.10;88.60;;;0.83;59.57;103262.72;3081485;46;20431;-67
2024/01/11 05:38:45;;;;;;;51.73;24.97;;;-1.00;89.20;;;0.86;59.26;103248.78;3080853;46;20447;-66
2024/01/11 05:41:14;;;;;;;50.00;24.97;;;-1.00;88.80;;;0.78;59.16;103261.16;3080379;46;21010;-64
2024/01/11 05:43:43;;;;;;;47.80;24.47;;;-1.00;88.00;;;0.69;59.30;103257.09;3081044;46;20438;-66
2024/01/11 05:46:11;;;;;;;50.90;24.50;;;-1.00;87.80;;;0.60;59.66;103231.47;3081174;46;20500;-65
2024/01/11 05:48:40;;;;;;;49.20;25.27;;;-1.10;87.80;;;0.50;60.27;103227.50;3080118;46;20580;-69
2024/01/11 05:51:09;;;;;;;51.30;25.20;;;-1.10;88.40;;;0.37;60.72;103223.59;3080942;46;20443;-63
2024/01/11 05:53:37;;;;;;;47.90;25.77;;;-1.20;88.40;;;0.31;60.72;103234.16;3081091;46;20433;-65
2024/01/11 05:56:10;;;;;;;54.83;27.50;;;-1.20;88.50;;;0.22;61.33;103244.78;3081108;46;20438;-66
2024/01/11 05:58:40;;;;;;;50.53;24.63;;;-1.30;89.10;;;0.20;61.34;103241.38;3080688;46;20613;-65
2024/01/11 06:01:08;;;;;;;54.73;25.53;;;-1.40;89.00;;;0.25;61.64;103235.19;3080856;46;21036;-66
2024/01/11 06:03:38;;;;;;;52.03;25.40;;;-1.40;90.00;;;0.37;61.28;103221.00;3081277;46;21076;-64
2024/01/11 06:06:07;;;;;;;49.00;23.10;;;-1.40;90.50;;;0.49;61.41;103224.06;3080945;46;20434;-61
2024/01/11 06:08:36;;;;;;;59.10;27.93;;;-1.40;90.70;;;0.60;61.16;103210.75;3080312;46;21064;-60
2024/01/11 06:11:06;;;;;;;55.87;27.37;;;-1.30;90.60;;;0.64;60.77;103218.38;3080605;46;21069;-66
2024/01/11 06:13:34;;;;;;;50.40;24.67;;;-1.20;90.60;;;0.74;61.23;103221.53;3081107;46;20446;-67
2024/01/11 06:16:03;;;;;;;54.10;26.67;;;-1.20;90.90;;;0.82;60.89;103227.31;3080927;46;20494;-65
2024/01/11 06:18:31;;;;;;;57.53;27.30;;;-1.10;90.70;;;0.87;60.82;103233.19;3080319;46;21029;-65
2024/01/11 06:21:00;;;;;;;55.63;27.10;;;-1.00;90.60;;;0.91;60.75;103241.69;3080562;46;21018;-65
2024/01/11 06:23:28;;;;;;;51.80;24.47;;;-1.00;90.50;;;0.97;61.09;103255.31;3081002;46;20498;-65
2024/01/11 06:25:57;;;;;;;60.40;29.80;;;-0.90;90.80;;;1.09;61.12;103261.84;3080542;46;20458;-65
2024/01/11 06:28:25;;;;;;;58.87;27.07;;;-0.80;90.90;;;1.21;61.05;103272.63;3080102;46;21046;-65
2024/01/11 06:30:53;;;;;;;58.87;28.63;;;-0.80;90.90;;;1.31;60.83;103284.41;3080485;46;20472;-65
2024/01/11 06:33:22;;;;;;;52.73;25.83;;;-0.60;90.70;;;1.41;60.85;103274.56;3080701;46;20517;-66
2024/01/11 06:35:50;;;;;;;52.83;26.30;;;-0.50;90.80;;;1.50;60.74;103269.03;3080344;46;20524;-65
2024/01/11 06:38:19;;;;;;;59.50;29.20;;;-0.40;90.60;;;1.61;60.71;103266.06;3080321;46;21114;-66
2024/01/11 06:40:49;;;;;;;59.27;29.17;;;-0.30;90.50;;;1.72;60.16;103254.41;3080353;46;20427;-64
2024/01/11 06:43:17;;;;;;;56.23;28.30;;;-0.20;90.30;;;1.80;59.91;103257.59;3080704;46;20434;-65
2024/01/11 06:45:45;;;;;;;57.47;29.90;;;-0.10;90.00;;;1.86;59.85;103251.31;3080381;46;20462;-66
2024/01/11 06:48:14;;;;;;;64.77;30.50;;;-0.10;89.80;;;1.92;59.86;103243.31;3079961;46;21049;-65
2024/01/11 06:50:42;;;;;;;51.17;26.50;;;-0.10;89.70;;;1.99;59.42;103231.78;3080043;46;20490;-63
2024/01/11 06:53:11;;;;;;;53.53;28.40;;;0.00;89.80;;;2.04;59.51;103232.47;3082465;46;21069;-62
2024/01/11 06:55:41;;;;;;;57.33;29.03;;;0.10;89.90;;;2.05;59.18;103234.13;3082556;46;21009;-65
2024/01/11 06:58:09;;;;;;;55.57;29.87;;;0.10;89.40;;;1.95;58.91;103237.97;3082290;46;20494;-65
2024/01/11 07:00:42;;;;;;;63.47;32.07;;;0.10;88.70;;;1.80;58.85;103226.44;3082916;46;20970;-65
2024/01/11 07:03:11;;;;;;;65.80;30.60;;;0.10;88.20;;;1.61;59.16;103230.59;3082819;46;20449;-65
2024/01/11 07:05:40;;;;;;;60.73;30.10;;;0.00;87.90;;;1.50;59.84;103247.47;3082792;46;20455;-63
2024/01/11 07:08:08;;;;;;;62.07;30.00;;;-0.10;88.30;;;1.50;60.19;103250.88;3082224;46;20556;-65
2024/01/11 07:10:37;;;;;;;60.90;29.67;;;-0.20;89.50;;;1.54;60.57;103254.22;3082488;46;20907;-65
2024/01/11 07:13:06;;;;;;;67.07;30.73;;;-0.10;90.20;;;1.57;60.38;103254.13;3082557;46;20492;-65
2024/01/11 07:15:35;;;;;;;64.23;29.83;;;-0.20;90.30;;;1.62;60.96;103253.03;3082290;46;20433;-66
2024/01/11 07:18:03;;;;;;;65.83;29.97;;;-0.20;90.90;;;1.69;60.85;103253.69;3082043;46;20450;-65
2024/01/11 07:20:33;;;;;;;62.73;28.53;;;-0.10;90.80;;;1.68;60.50;103246.78;3082565;46;20449;-66
2024/01/11 07:23:02;;;;;;;64.30;30.13;;;-0.10;90.70;;;1.67;60.83;103234.72;3082626;46;20446;-65
2024/01/11 07:25:30;;;;;;;72.57;32.07;;;-0.10;90.90;;;1.64;61.07;103240.03;3082415;46;20510;-66
2024/01/11 07:27:59;;;;;;;61.00;28.53;;;-0.10;90.60;;;1.60;60.89;103230.63;3082006;46;20451;-65
2024/01/11 07:30:27;;;;;;;64.57;31.07;;;-0.20;90.70;;;1.56;60.96;103232.50;3082536;46;20434;-65
2024/01/11 07:32:55;;;;;;;71.77;30.90;;;-0.20;91.10;;;1.55;61.16;103236.00;3082079;46;20573;-65
2024/01/11 07:35:24;;;;;;;68.17;31.03;;;-0.20;91.10;;;1.53;61.04;103236.94;3082839;46;20999;-65
2024/01/11 07:37:53;;;;;;;72.53;31.40;;;-0.30;91.20;;;1.50;61.46;103234.50;3081768;46;20930;-65
2024/01/11 07:40:21;;;;;;;64.73;28.63;;;-0.30;91.30;;;1.48;61.26;103238.84;3082656;46;20431;-66
2024/01/11 07:42:49;;;;;;;69.53;30.90;;;-0.30;91.50;;;1.49;61.72;103230.19;3082136;46;20452;-65
2024/01/11 07:45:18;;;;;;;67.00;29.00;;;-0.30;91.60;;;1.52;61.83;103245.66;3082030;46;20571;-62
2024/01/11 07:47:47;;;;;;;71.43;28.83;;;-0.30;91.80;;;1.56;62.39;103253.28;3082159;46;20451;-65
2024/01/11 07:50:16;;;;;;;66.10;27.17;;;-0.30;92.00;;;1.63;62.35;103266.88;3082297;46;20446;-66
2024/01/11 07:52:45;;;;;;;67.17;29.33;;;-0.20;92.20;;;1.73;62.63;103270.84;3082182;46;20438;-64
2024/01/11 07:55:13;;;;;;;83.63;34.70;;;-0.20;92.30;;;1.83;62.73;103270.44;3082103;46;20456;-65
2024/01/11 07:57:42;;;;;;;73.13;32.40;;;-0.10;92.30;;;1.90;62.25;103264.09;3081936;46;20450;-66
2024/01/11 08:00:11;;;;;;;72.73;31.37;;;-0.10;92.00;;;1.91;61.84;103270.16;3082296;46;20427;-66
2024/01/11 08:02:39;;;;;;;75.50;34.77;;;0.00;91.80;;;1.97;62.21;103269.94;3081967;46;20921;-64
2024/01/11 08:05:08;;;;;;;78.40;36.37;;;0.10;92.00;;;2.05;62.28;103263.56;3082458;46;20463;-66
2024/01/11 08:07:37;;;;;;;101.63;49.57;;;0.10;92.00;;;2.16;62.17;103268.34;3081785;46;20442;-65
2024/01/11 08:10:06;;;;;;;72.63;33.77;;;0.20;91.90;;;2.25;62.31;103270.59;3081824;46;20435;-68
2024/01/11 08:12:36;;;;;;;65.93;29.20;;;0.30;92.00;;;2.38;62.36;103266.63;3082087;46;20470;-65
2024/01/11 08:15:05;;;;;;;74.70;32.00;;;0.40;92.10;;;2.44;61.87;103260.34;3082130;46;21010;-66
2024/01/11 08:17:34;;;;;;;77.50;32.93;;;0.50;91.70;;;2.45;61.65;103272.44;3081428;46;20501;-66
2024/01/11 08:20:08;;;;;;;64.53;30.47;;;0.50;91.60;;;2.45;61.65;103262.03;3082528;46;21090;-65
2024/01/11 08:22:37;;;;;;;71.33;30.57;;;0.50;91.50;;;2.46;61.56;103274.97;3082237;46;20441;-64
2024/01/11 08:25:06;;;;;;;70.90;28.87;;;0.60;91.60;;;2.46;61.76;103280.16;3082133;46;20434;-65
2024/01/11 08:27:34;;;;;;;68.63;29.77;;;0.50;91.50;;;2.46;61.75;103277.56;3081297;46;21105;-63
2024/01/11 08:30:04;;;;;;;64.73;27.97;;;0.60;91.60;;;2.44;61.12;103274.19;3081978;46;20434;-65
2024/01/11 08:32:38;;;;;;;62.97;28.67;;;0.60;91.60;;;2.41;61.48;103271.69;3082050;46;20529;-66
2024/01/11 08:35:12;;;;;;;65.63;29.03;;;0.50;91.60;;;2.36;61.41;103263.22;3082837;46;20462;-65
2024/01/11 08:37:41;;;;;;;60.47;30.70;;;0.50;91.60;;;2.33;61.41;103268.53;3082009;46;21110;-64
2024/01/11 08:40:10;;;;;;;64.70;28.47;;;0.50;91.70;;;2.32;61.52;103264.25;3082075;46;20998;-66
2024/01/11 08:42:41;;;;;;;67.70;30.00;;;0.50;91.80;;;2.37;62.64;103270.13;3081638;46;21072;-62
2024/01/11 08:45:09;;;;;;;69.63;30.70;;;0.50;92.50;;;2.48;62.91;103280.94;3081103;46;20458;-65
2024/01/11 08:47:38;;;;;;;64.07;28.70;;;0.50;92.60;;;2.60;62.89;103277.88;3081105;46;20508;-66
2024/01/11 08:50:07;;;;;;;68.40;31.50;;;0.60;92.70;;;2.71;62.44;103274.81;3080625;46;21021;-67
2024/01/11 08:52:35;;;;;;;64.23;27.83;;;0.70;92.50;;;2.76;62.44;103278.09;3081413;46;20434;-65
2024/01/11 08:55:05;;;;;;;68.00;29.90;;;0.80;92.40;;;2.86;62.62;103284.63;3081316;46;20434;-65
2024/01/11 08:57:35;;;;;;;67.47;32.03;;;0.90;92.50;;;2.96;62.54;103285.09;3080048;46;21080;-65
2024/01/11 09:00:08;;;;;;;74.17;33.47;;;1.00;92.40;;;3.07;62.25;103282.88;3081262;46;21016;-65
2024/01/11 09:02:36;;;;;;;68.30;33.83;;;1.00;92.30;;;3.13;61.75;103282.66;3080524;46;20443;-66
2024/01/11 09:05:07;;;;;;;60.17;29.90;;;1.20;92.00;;;3.06;61.49;103281.22;3081750;46;20455;-65
2024/01/11 09:07:36;;;;;;;71.43;31.73;;;1.20;91.60;;;2.95;61.47;103275.63;3080669;46;20469;-64
2024/01/11 09:10:08;;;;;;;63.03;29.03;;;1.20;91.30;;;2.89;61.68;103279.31;3080829;46;21035;-66
2024/01/11 09:12:36;;;;;;;66.97;30.10;;;1.10;91.30;;;2.92;61.87;103273.13;3081265;46;20924;-66
2024/01/11 09:15:06;;;;;;;65.27;31.47;;;1.10;91.70;;;2.94;61.57;103266.97;3080743;46;20526;-66
2024/01/11 09:17:34;;;;;;;61.87;31.03;;;1.10;91.60;;;2.95;61.63;103260.03;3080748;43;20498;-65
2024/01/11 09:20:03;;;;;;;76.23;33.37;;;1.10;91.50;;;2.98;61.81;103259.88;3081515;46;20525;-66
2024/01/11 09:22:32;;;;;;;61.93;28.80;;;1.10;91.70;;;2.99;61.60;103257.22;3081530;46;20427;-65
2024/01/11 09:25:00;;;;;;;66.23;29.63;;;1.10;91.70;;;3.05;61.71;103254.34;3080980;46;20438;-66
2024/01/11 09:27:29;;;;;;;61.57;28.77;;;1.10;91.80;;;3.10;61.75;103256.75;3080766;46;20450;-65
2024/01/11 09:29:58;;;;;;;66.10;32.50;;;1.10;91.80;;;3.17;61.58;103266.00;3080769;46;20449;-66
2024/01/11 09:32:31;;;;;;;59.50;29.50;;;1.10;91.90;;;3.24;61.58;103264.81;3079622;46;20993;-66
2024/01/11 09:35:00;;;;;;;67.23;31.40;;;1.20;92.00;;;3.34;61.89;103260.94;3081333;46;20463;-65
2024/01/11 09:37:28;;;;;;;68.53;32.03;;;1.30;92.00;;;3.40;61.33;103251.09;3079980;46;20580;-63
2024/01/11 09:39:56;;;;;;;63.60;30.87;;;1.30;91.90;;;3.44;61.26;103257.03;3080212;46;21025;-64
2024/01/11 09:42:25;;;;;;;60.87;30.80;;;1.40;91.80;;;3.49;61.36;103259.44;3080891;46;20438;-70
2024/01/11 09:44:56;;;;;;;63.03;30.40;;;1.40;91.70;;;3.53;61.06;103258.38;3081219;46;20538;-66
2024/01/11 09:47:25;;;;;;;63.27;30.83;;;1.40;91.80;;;3.59;61.24;103260.72;3080063;46;21016;-66
2024/01/11 09:49:57;;;;;;;57.27;28.53;;;1.50;91.80;;;3.66;61.04;103262.97;3080622;46;20434;-65
2024/01/11 09:52:27;;;;;;;66.47;30.20;;;1.50;91.80;;;3.70;61.13;103258.50;3081045;46;20437;-64
2024/01/11 09:54:56;;;;;;;63.27;30.00;;;1.60;91.70;;;3.72;61.05;103254.91;3079893;46;20496;-66
2024/01/11 09:57:30;;;;;;;71.97;32.93;;;1.60;91.70;;;3.78;61.13;103261.63;3080412;43;20460;-65
2024/01/11 09:59:59;;;;;;;60.13;30.67;;;1.70;91.80;;;3.83;61.00;103250.06;3080767;46;20438;-65
2024/01/11 10:02:27;;;;;;;63.43;30.47;;;1.70;91.60;;;3.86;60.56;103244.72;3080318;46;20522;-66
2024/01/11 10:04:56;;;;;;;63.37;32.20;;;1.80;91.60;;;3.85;60.75;103237.81;3080819;46;21064;-65
2024/01/11 10:07:25;;;;;;;68.53;31.23;;;1.80;91.40;;;3.88;60.54;103229.84;3080325;46;20466;-66
2024/01/11 10:09:53;;;;;;;60.77;28.73;;;1.80;91.40;;;3.90;60.39;103233.22;3079240;46;20462;-65
2024/01/11 10:12:24;;;;;;;54.90;28.63;;;1.80;91.50;;;3.96;60.77;103235.56;3080661;46;20433;-67
2024/01/11 10:14:53;;;;;;;61.87;29.13;;;1.80;91.60;;;4.05;60.80;103231.69;3080522;46;20517;-63